Time;durP1;ratioP1;P1;durP2;ratioP2;P2;SDS_P1;SDS_P2;PMS_P1;PMS_P2;Temp;Humidity;BMP_temperature;BMP_pressure;BME280_temperature;BME280_humidity;BME280_pressure;Samples;Min_cycle;Max_cycle;Signal;HPM_P1;HPM_P2
2022/12/10 00:01:31;;;;;;;0.70;0.70;;;;;;;-4.89;99.98;99117.38;4858945;29;20664;-83
2022/12/10 00:03:59;;;;;;;0.77;0.77;;;;;;;-4.95;99.95;99119.75;4859106;29;20061;-83
2022/12/10 00:06:28;;;;;;;0.98;0.98;;;;;;;-4.91;100.00;99140.41;4859246;29;20060;-84
2022/12/10 00:08:55;;;;;;;0.85;0.85;;;;;;;-4.88;100.00;99140.13;4858536;29;20105;-83
2022/12/10 00:11:23;;;;;;;0.60;0.60;;;;;;;-4.83;100.00;99137.06;4858416;29;20101;-83
2022/12/10 00:13:51;;;;;;;0.80;0.80;;;;;;;-4.83;100.00;99132.63;4857205;29;20106;-83
2022/12/10 00:16:20;;;;;;;0.68;0.68;;;;;;;-4.79;100.00;99128.72;4858267;29;20049;-81
2022/12/10 00:18:48;;;;;;;0.77;0.77;;;;;;;-4.81;100.00;99122.78;4858558;29;20148;-82
2022/12/10 00:21:23;;;;;;;0.80;0.80;;;;;;;-4.71;100.00;99127.16;4842173;29;20404;-82
2022/12/10 00:23:50;;;;;;;0.70;0.70;;;;;;;-4.69;100.00;99122.59;4859271;29;20111;-82
2022/12/10 00:26:21;;;;;;;0.70;0.70;;;;;;;-4.66;100.00;99119.66;4858630;29;20517;-83
2022/12/10 00:28:48;;;;;;;0.70;0.70;;;;;;;-4.60;100.00;99124.38;4858953;29;20109;-82
2022/12/10 00:31:21;;;;;;;0.73;0.73;;;;;;;-4.55;100.00;99118.66;4858571;29;20061;-83
2022/12/10 00:33:48;;;;;;;0.90;0.90;;;;;;;-4.55;100.00;99118.66;4842130;29;20535;-82
2022/12/10 00:36:25;;;;;;;0.73;0.73;;;;;;;-4.52;100.00;99110.47;4858608;29;20045;-83
2022/12/10 00:38:52;;;;;;;0.70;0.70;;;;;;;-4.46;100.00;99104.59;4857973;29;20064;-82
2022/12/10 00:41:19;;;;;;;0.73;0.73;;;;;;;-4.57;100.00;99100.38;4841058;29;20592;-82
2022/12/10 00:43:47;;;;;;;0.60;0.60;;;;;;;-4.52;100.00;99103.38;4857767;29;20053;-83
2022/12/10 00:46:15;;;;;;;0.70;0.70;;;;;;;-4.47;100.00;99105.59;4857063;29;20053;-81
2022/12/10 00:48:43;;;;;;;0.63;0.63;;;;;;;-4.43;100.00;99094.63;4857602;29;20053;-83
2022/12/10 00:51:16;;;;;;;0.60;0.60;;;;;;;-4.43;100.00;99078.81;4841054;29;20069;-82
2022/12/10 00:53:44;;;;;;;0.70;0.70;;;;;;;-4.41;100.00;99073.38;4841649;29;20109;-82
2022/12/10 00:56:15;;;;;;;0.55;0.55;;;;;;;-4.39;100.00;99079.34;4858201;29;20088;-82
2022/12/10 00:58:42;;;;;;;0.60;0.60;;;;;;;-4.40;100.00;99073.25;4858398;29;20057;-82
2022/12/10 01:01:16;;;;;;;0.95;0.95;;;;;;;-4.40;100.00;99069.78;4858095;29;20049;-83
2022/12/10 01:03:44;;;;;;;0.50;0.50;;;;;;;-4.38;100.00;99066.03;4858754;29;20061;-82
2022/12/10 01:06:16;;;;;;;0.60;0.60;;;;;;;-4.34;100.00;99066.56;4851941;29;20061;-83
2022/12/10 01:08:44;;;;;;;0.75;0.75;;;;;;;-4.34;99.90;99058.66;4847323;29;20054;-82
2022/12/10 01:11:13;;;;;;;0.80;0.80;;;;;;;-4.37;99.83;99057.13;4847616;29;20054;-81
2022/12/10 01:13:41;;;;;;;0.70;0.70;;;;;;;-4.40;99.47;99053.97;4847367;29;20049;-81
2022/12/10 01:16:10;;;;;;;0.65;0.65;;;;;;;-4.36;99.60;99057.97;4831215;29;20098;-81
2022/12/10 01:18:37;;;;;;;0.77;0.77;;;;;;;-4.37;98.94;99062.41;4845386;29;20053;-82
2022/12/10 01:21:08;;;;;;;0.70;0.70;;;;;;;-4.33;98.82;99052.38;4855451;29;20145;-82
2022/12/10 01:23:40;;;;;;;0.80;0.80;;;;;;;-4.29;98.92;99045.03;4857061;29;20160;-80
2022/12/10 01:26:10;;;;;;;0.65;0.65;;;;;;;-4.26;98.63;99042.91;4873886;29;20057;-81
2022/12/10 01:28:39;;;;;;;0.73;0.73;;;;;;;-4.26;98.50;99048.19;4858895;29;20129;-82
2022/12/10 01:31:12;;;;;;;0.70;0.70;;;;;;;-4.32;98.40;99054.06;4841067;29;20080;-82
2022/12/10 01:33:39;;;;;;;0.80;0.80;;;;;;;-4.31;98.49;99055.72;4841069;29;20057;-81
2022/12/10 01:36:26;;;;;;;0.90;0.90;;;;;;;-4.27;98.32;99056.25;4855682;29;20053;-80
2022/12/10 01:38:53;;;;;;;0.75;0.75;;;;;;;-4.31;97.93;99053.06;4853777;29;20065;-81
2022/12/10 01:41:45;;;;;;;0.80;0.80;;;;;;;-4.35;97.66;99064.91;4856778;29;20275;-81
2022/12/10 01:44:13;;;;;;;0.80;0.80;;;;;;;-4.34;97.48;99068.34;4855476;29;20517;-82
2022/12/10 01:46:42;;;;;;;0.70;0.70;;;;;;;-4.33;97.18;99070.84;4856842;29;20053;-81
2022/12/10 01:49:15;;;;;;;0.70;0.70;;;;;;;-4.26;97.18;99073.72;4854229;29;20054;-79
2022/12/10 01:51:45;;;;;;;0.60;0.60;;;;;;;-4.26;97.17;99078.97;4822369;29;20133;-81
2022/12/10 01:54:15;;;;;;;0.52;0.52;;;;;;;-4.24;97.07;99074.41;4838044;29;20134;-80
2022/12/10 01:56:46;;;;;;;0.95;0.95;;;;;;;-4.27;97.09;99074.72;4838332;29;20072;-81
2022/12/10 01:59:13;;;;;;;0.70;0.70;;;;;;;-4.26;97.10;99068.44;4836369;29;20463;-79
2022/12/10 02:01:43;;;;;;;0.80;0.80;;;;;;;-4.19;97.14;99074.78;4838219;29;20062;-83
2022/12/10 02:04:24;;;;;;;0.70;0.70;;;;;;;-4.17;96.91;99062.28;4837326;29;20139;-83
2022/12/10 02:07:02;;;;;;;0.70;0.70;;;;;;;-4.21;96.74;99060.91;4838269;29;20800;-82
2022/12/10 02:09:40;;;;;;;0.70;0.70;;;;;;;-4.26;96.74;99073.72;4821349;29;20142;-81
2022/12/10 02:12:15;;;;;;;0.60;0.60;;;;;;;-4.26;96.74;99063.16;4838115;29;20057;-82
2022/12/10 02:15:19;;;;;;;0.57;0.57;;;;;;;-4.18;96.71;99063.25;4836892;29;20514;-82
2022/12/10 02:17:54;;;;;;;0.80;0.80;;;;;;;-4.19;96.94;99058.97;4763467;30;20137;-81
2022/12/10 02:20:36;;;;;;;0.70;0.70;;;;;;;-4.23;96.69;99069.00;4751170;30;20396;-82
2022/12/10 02:23:09;;;;;;;0.70;0.70;;;;;;;-4.20;96.38;99067.88;4751491;30;20060;-81
2022/12/10 02:25:45;;;;;;;0.70;0.70;;;;;;;-4.19;96.16;99074.78;4767581;30;20060;-82
2022/12/10 02:28:22;;;;;;;0.70;0.70;;;;;;;-4.17;96.28;99065.75;4772164;30;20060;-81
2022/12/10 02:30:50;;;;;;;0.70;0.70;;;;;;;-4.20;95.99;99063.41;4769536;30;20066;-81
2022/12/10 02:33:19;;;;;;;0.73;0.73;;;;;;;-4.20;95.84;99058.16;4749867;30;20063;-81
2022/12/10 02:35:49;;;;;;;0.70;0.70;;;;;;;-4.21;95.82;99066.19;4748980;30;20552;-82
2022/12/10 02:38:25;;;;;;;0.80;0.80;;;;;;;-4.16;95.91;99063.94;4749006;30;20052;-82
2022/12/10 02:40:59;;;;;;;0.52;0.52;;;;;;;-4.12;95.69;99062.69;4761704;30;20060;-82
2022/12/10 02:43:28;;;;;;;0.60;0.60;;;;;;;-4.15;95.71;99061.16;4764720;30;20059;-82
2022/12/10 02:45:56;;;;;;;0.60;0.60;;;;;;;-4.10;95.60;99067.78;4766605;30;20052;-82
2022/12/10 02:48:25;;;;;;;0.80;0.80;;;;;;;-4.08;95.39;99064.00;4752174;30;20056;-83
2022/12/10 02:50:52;;;;;;;0.80;0.80;;;;;;;-4.09;95.46;99051.00;4781415;30;20063;-82
2022/12/10 02:53:19;;;;;;;0.70;0.70;;;;;;;-4.06;95.38;99043.59;4820700;29;20049;-81
2022/12/10 02:56:01;;;;;;;0.82;0.82;;;;;;;-4.03;95.28;99042.47;4856278;29;20102;-82
2022/12/10 02:59:02;;;;;;;0.70;0.70;;;;;;;-3.97;95.37;99040.09;4837338;29;20072;-83
2022/12/10 03:02:05;;;;;;;0.70;0.70;;;;;;;-3.96;95.36;99031.19;4829078;29;20080;-82
2022/12/10 03:04:59;;;;;;;0.60;0.60;;;;;;;-3.97;95.10;99031.34;4821726;29;20074;-83
2022/12/10 03:07:43;;;;;;;0.80;0.80;;;;;;;-3.92;95.24;99050.19;4826424;29;20059;-82
2022/12/10 03:10:41;;;;;;;0.68;0.68;;;;;;;-3.90;95.20;99039.47;4807308;29;20521;-83
2022/12/10 03:13:10;;;;;;;0.75;0.75;;;;;;;-3.92;94.91;99045.72;4830099;29;20153;-83
2022/12/10 03:15:40;;;;;;;0.60;0.60;;;;;;;-3.97;94.56;99048.00;4822645;29;20194;-80
2022/12/10 03:18:08;;;;;;;0.50;0.50;;;;;;;-3.96;94.92;99054.09;4811610;29;20625;-81
2022/12/10 03:20:39;;;;;;;0.65;0.65;;;;;;;-3.94;94.99;99060.88;4796642;29;20058;-80
2022/12/10 03:23:13;;;;;;;0.70;0.70;;;;;;;-3.88;94.99;99050.69;4810474;29;20053;-81
2022/12/10 03:25:40;;;;;;;0.63;0.63;;;;;;;-3.87;94.80;99044.44;4827077;29;20134;-82
2022/12/10 03:28:07;;;;;;;0.80;0.80;;;;;;;-3.86;94.52;99043.47;4825906;29;20054;-81
2022/12/10 03:30:36;;;;;;;0.70;0.70;;;;;;;-3.89;94.42;99038.50;4795582;29;20054;-81
2022/12/10 03:33:04;;;;;;;0.77;0.77;;;;;;;-3.89;94.68;99046.41;4804155;29;20086;-81
2022/12/10 03:35:31;;;;;;;0.80;0.80;;;;;;;-3.88;94.65;99042.78;4823499;29;20062;-81
2022/12/10 03:37:59;;;;;;;0.60;0.60;;;;;;;-3.86;94.41;99043.47;4828491;29;20497;-81
2022/12/10 03:40:26;;;;;;;0.73;0.73;;;;;;;-3.88;94.45;99046.25;4858940;29;20098;-84
2022/12/10 03:42:53;;;;;;;0.82;0.82;;;;;;;-3.90;94.28;99045.56;4858413;29;20053;-82
2022/12/10 03:45:20;;;;;;;0.70;0.70;;;;;;;-3.87;94.32;99042.66;4855585;29;20106;-81
2022/12/10 03:47:49;;;;;;;0.70;0.70;;;;;;;-3.84;94.40;99041.53;4831798;29;20058;-79
2022/12/10 03:50:16;;;;;;;0.70;0.70;;;;;;;-3.85;94.39;99047.75;4847072;29;20152;-80
2022/12/10 03:52:43;;;;;;;0.60;0.60;;;;;;;-3.84;94.49;99049.44;4849076;29;20060;-79
2022/12/10 03:55:10;;;;;;;0.70;0.70;;;;;;;-3.83;94.41;99043.16;4847966;29;20058;-82
2022/12/10 03:57:39;;;;;;;0.70;0.70;;;;;;;-3.80;94.42;99048.97;4848253;29;20109;-81
2022/12/10 04:00:07;;;;;;;0.70;0.70;;;;;;;-3.78;94.34;99039.09;4830734;29;20046;-81
2022/12/10 04:02:40;;;;;;;0.63;0.63;;;;;;;-3.78;94.19;99030.34;4848090;29;20106;-82
2022/12/10 04:05:21;;;;;;;0.80;0.80;;;;;;;-3.79;94.22;99033.97;4848808;29;20065;-83
2022/12/10 04:07:48;;;;;;;0.60;0.60;;;;;;;-3.83;93.85;99022.06;4848190;29;20058;-83
2022/12/10 04:10:15;;;;;;;0.60;0.60;;;;;;;-3.81;94.13;99026.22;4848706;29;20140;-83
2022/12/10 04:12:42;;;;;;;0.60;0.60;;;;;;;-3.81;94.29;99017.47;4806010;29;20056;-83
2022/12/10 04:17:55;;;;;;;0.85;0.85;;;;;;;-3.71;94.14;99041.94;4839500;29;20060;-82
2022/12/10 04:28:52;;;;;;;0.65;0.65;;;;;;;-3.69;94.26;99034.72;4788933;29;20055;-83
2022/12/10 04:31:19;;;;;;;0.60;0.60;;;;;;;-3.66;94.20;99037.03;4786339;29;20050;-83
2022/12/10 04:33:46;;;;;;;0.90;0.90;;;;;;;-3.68;94.05;99033.72;4786055;29;20050;-82
2022/12/10 04:36:13;;;;;;;0.65;0.65;;;;;;;-3.65;94.13;99040.50;4800571;29;20054;-82
2022/12/10 04:38:40;;;;;;;0.70;0.70;;;;;;;-3.64;94.21;99047.47;4801638;29;20474;-83
2022/12/10 04:41:15;;;;;;;0.60;0.60;;;;;;;-3.65;94.01;99041.31;4801556;29;20137;-82
2022/12/10 04:43:42;;;;;;;0.80;0.80;;;;;;;-3.68;94.33;99033.72;4801256;29;20081;-82
2022/12/10 04:46:10;;;;;;;0.63;0.63;;;;;;;-3.64;94.08;99029.00;4785368;29;20131;-84
2022/12/10 04:48:39;;;;;;;0.70;0.70;;;;;;;-3.64;94.24;99031.63;4800247;29;20070;-83
2022/12/10 04:51:06;;;;;;;0.90;0.90;;;;;;;-3.66;94.05;99034.41;4800415;29;20123;-83
2022/12/10 04:53:33;;;;;;;0.63;0.63;;;;;;;-3.66;94.17;99015.13;4785957;29;20070;-82
2022/12/10 04:56:01;;;;;;;0.65;0.65;;;;;;;-3.60;94.03;99023.22;4800215;29;20054;-82
2022/12/10 04:58:30;;;;;;;0.70;0.70;;;;;;;-3.64;93.87;99029.00;4800956;29;20073;-83
2022/12/10 05:01:04;;;;;;;0.60;0.60;;;;;;;-3.66;93.74;99021.22;4807968;29;20050;-83
2022/12/10 05:03:32;;;;;;;0.60;0.60;;;;;;;-3.75;93.77;99009.78;4843643;29;20148;-85
2022/12/10 05:06:03;;;;;;;0.95;0.95;;;;;;;-3.71;94.03;99018.22;4841473;29;20063;-84
2022/12/10 05:08:30;;;;;;;0.63;0.63;;;;;;;-3.69;94.01;99024.16;4855631;29;20581;-82
2022/12/10 05:11:06;;;;;;;0.82;0.82;;;;;;;-3.70;94.09;99009.31;4852838;29;20061;-85
2022/12/10 05:13:48;;;;;;;0.60;0.60;;;;;;;-3.65;94.01;99030.78;4833233;29;20050;-83
2022/12/10 05:16:17;;;;;;;0.65;0.65;;;;;;;-3.68;94.12;99028.44;4856912;29;20137;-83
2022/12/10 05:18:44;;;;;;;0.70;0.70;;;;;;;-3.67;94.20;99038.03;4854692;29;20061;-86
2022/12/10 05:21:14;;;;;;;0.60;0.60;;;;;;;-3.62;93.91;99038.41;4515920;29;10000862;-83
2022/12/10 05:23:44;;;;;;;0.70;0.70;;;;;;;-3.65;94.17;99029.97;4835420;29;20572;-85
2022/12/10 05:26:15;;;;;;;0.60;0.60;;;;;;;-3.58;93.91;99041.56;4853851;29;20098;-89
2022/12/10 05:28:51;;;;;;;0.70;0.70;;;;;;;-3.55;93.88;99038.59;4852241;29;20049;-82
2022/12/10 05:31:21;;;;;;;0.70;0.70;;;;;;;-3.64;94.01;99032.47;4834462;29;20054;-85
2022/12/10 05:33:49;;;;;;;0.77;0.77;;;;;;;-3.52;94.26;99047.06;4856728;29;20100;-83
2022/12/10 05:36:19;;;;;;;0.60;0.60;;;;;;;-3.47;94.14;99051.84;4857564;29;20073;-83
2022/12/10 05:38:46;;;;;;;0.60;0.60;;;;;;;-3.44;93.85;99046.28;4856287;29;20049;-82
2022/12/10 05:41:22;;;;;;;0.80;0.80;;;;;;;-3.42;94.01;99040.84;4857493;29;20491;-84
2022/12/10 05:43:50;;;;;;;0.60;0.60;;;;;;;-3.43;93.67;99042.66;4841367;29;20133;-82
2022/12/10 05:46:23;;;;;;;0.93;0.93;;;;;;;-3.48;93.90;99042.28;4857381;29;20046;-85
2022/12/10 05:48:52;;;;;;;0.80;0.80;;;;;;;-3.41;93.52;99039.88;4856370;29;20119;-82
2022/12/10 05:51:22;;;;;;;0.55;0.55;;;;;;;-3.47;93.42;99033.38;4839127;29;20049;-85
2022/12/10 05:53:50;;;;;;;0.70;0.70;;;;;;;-3.37;93.55;99034.13;4839235;29;20054;-83
2022/12/10 05:56:19;;;;;;;0.88;0.88;;;;;;;-3.34;93.39;99030.34;4837935;29;20050;-84
2022/12/10 05:58:49;;;;;;;0.80;0.80;;;;;;;-3.32;93.46;99028.38;4842962;29;20058;-84
2022/12/10 06:01:22;;;;;;;0.50;0.50;;;;;;;-3.31;93.23;99032.69;4845245;29;20049;-87
2022/12/10 06:03:52;;;;;;;0.73;0.73;;;;;;;-3.34;93.25;99028.56;4828604;29;20054;-85
2022/12/10 06:06:27;;;;;;;0.50;0.50;;;;;;;-3.31;93.08;99022.97;4846397;29;20068;-86
2022/12/10 06:08:55;;;;;;;0.50;0.50;;;;;;;-3.31;93.06;99024.78;4833108;29;20057;-87
2022/12/10 06:11:22;;;;;;;0.70;0.70;;;;;;;-3.29;93.18;99030.72;4829391;29;20111;-85
2022/12/10 06:13:50;;;;;;;0.60;0.60;;;;;;;-3.28;92.98;99027.09;4843640;29;20049;-86
2022/12/10 06:16:22;;;;;;;0.55;0.55;;;;;;;-3.32;92.95;99023.94;4843430;29;20106;-86
2022/12/10 06:18:50;;;;;;;0.75;0.75;;;;;;;-3.33;92.86;99024.09;4845092;29;20049;-86
2022/12/10 06:21:18;;;;;;;0.70;0.70;;;;;;;-3.32;93.15;99017.81;4796215;29;20582;-84
2022/12/10 06:23:46;;;;;;;0.80;0.80;;;;;;;-3.37;93.09;99012.19;4842700;29;20081;-86
2022/12/10 06:26:16;;;;;;;0.60;0.60;;;;;;;-3.36;92.91;99014.69;4826555;29;20106;-85
2022/12/10 06:28:45;;;;;;;0.60;0.60;;;;;;;-3.34;93.00;99018.00;4827044;29;20049;-88
2022/12/10 06:31:12;;;;;;;0.68;0.68;;;;;;;-3.34;93.09;99014.50;4843375;29;20050;-86
2022/12/10 06:33:40;;;;;;;0.70;0.70;;;;;;;-3.37;93.16;99005.09;4843473;29;20082;-86
2022/12/10 06:36:12;;;;;;;0.80;0.80;;;;;;;-3.32;93.24;99008.13;4821508;29;20062;-86
2022/12/10 06:38:39;;;;;;;0.60;0.60;;;;;;;-3.33;93.40;99001.16;4832429;29;20110;-84
2022/12/10 06:41:08;;;;;;;0.70;0.70;;;;;;;-3.22;93.35;99007.16;4834172;29;20091;-84
2022/12/10 06:43:36;;;;;;;0.90;0.90;;;;;;;-3.20;93.33;99006.03;4830443;29;20062;-84
2022/12/10 06:46:07;;;;;;;0.63;0.63;;;;;;;-3.12;93.47;99013.16;4843563;29;20057;-82
2022/12/10 06:48:34;;;;;;;0.50;0.50;;;;;;;-3.13;93.43;99016.78;4847333;29;20528;-83
2022/12/10 06:51:03;;;;;;;0.75;0.75;;;;;;;-3.14;93.31;99017.75;4845125;29;20106;-84
2022/12/10 06:53:31;;;;;;;0.80;0.80;;;;;;;-3.18;93.19;99014.63;4845834;29;20054;-83
2022/12/10 06:56:01;;;;;;;0.80;0.80;;;;;;;-3.11;93.59;99015.66;4834093;29;20085;-83
2022/12/10 06:58:29;;;;;;;0.63;0.63;;;;;;;-3.15;93.47;99005.56;4834832;29;20074;-83
2022/12/10 07:01:08;;;;;;;0.80;0.80;;;;;;;-3.01;93.50;99017.34;4826605;29;20181;-83
2022/12/10 07:03:36;;;;;;;0.90;0.90;;;;;;;-2.95;93.65;99014.06;4824802;29;20049;-84
2022/12/10 07:06:05;;;;;;;0.60;0.60;;;;;;;-2.95;93.51;99016.72;4840462;29;20517;-82
2022/12/10 07:08:32;;;;;;;0.70;0.70;;;;;;;-2.96;93.61;99015.91;4840481;29;20057;-83
2022/12/10 07:11:04;;;;;;;0.65;0.65;;;;;;;-2.90;93.70;99012.63;4844947;29;20062;-84
2022/12/10 07:13:31;;;;;;;0.70;0.70;;;;;;;-2.91;93.38;99015.41;4836719;29;20053;-83
2022/12/10 07:15:58;;;;;;;0.90;0.90;;;;;;;-2.89;93.76;99008.16;4840754;29;20062;-83
2022/12/10 07:18:27;;;;;;;0.65;0.65;;;;;;;-2.84;93.74;99005.88;4837843;29;20062;-84
2022/12/10 07:20:54;;;;;;;0.80;0.80;;;;;;;-2.80;93.65;99004.56;4841843;29;20060;-84
2022/12/10 07:23:21;;;;;;;0.75;0.75;;;;;;;-2.81;93.50;98996.78;4825510;29;20515;-83
2022/12/10 07:25:48;;;;;;;0.80;0.80;;;;;;;-2.75;93.54;99012.84;4825124;29;20215;-83
2022/12/10 07:28:16;;;;;;;0.68;0.68;;;;;;;-2.70;93.63;99012.38;4841335;29;20065;-84
2022/12/10 07:30:43;;;;;;;0.90;0.90;;;;;;;-2.64;93.42;99015.19;4825035;29;20046;-83
2022/12/10 07:33:11;;;;;;;0.55;0.55;;;;;;;-2.60;93.26;99013.06;4841239;29;20054;-84
2022/12/10 07:35:39;;;;;;;0.60;0.60;;;;;;;-2.56;93.41;98997.72;4841406;29;20062;-84
2022/12/10 07:38:14;;;;;;;1.00;1.00;;;;;;;-2.53;93.23;99005.31;4826174;29;20058;-84
2022/12/10 07:40:41;;;;;;;0.70;0.70;;;;;;;-2.45;93.24;99005.34;4823646;29;20428;-83
2022/12/10 07:43:08;;;;;;;0.80;0.80;;;;;;;-2.46;93.20;98999.22;4840585;29;20607;-85
2022/12/10 07:45:38;;;;;;;0.68;0.68;;;;;;;-2.48;93.22;99001.22;4840890;29;20130;-86
2022/12/10 07:48:05;;;;;;;0.80;0.80;;;;;;;-2.48;93.12;98998.59;4841635;29;20134;-85
2022/12/10 07:50:32;;;;;;;0.70;0.70;;;;;;;-2.41;93.26;98998.75;4841371;29;20065;-86
2022/12/10 07:53:00;;;;;;;0.80;0.80;;;;;;;-2.32;93.18;99000.44;4841300;29;20102;-84
2022/12/10 07:55:27;;;;;;;0.65;0.65;;;;;;;-2.33;92.98;98990.84;4815868;29;20050;-85
2022/12/10 07:57:54;;;;;;;0.80;0.80;;;;;;;-2.33;92.82;98996.16;4823378;29;20050;-85
2022/12/10 08:00:21;;;;;;;0.90;0.90;;;;;;;-2.25;92.87;98993.50;4820167;29;20054;-84
2022/12/10 08:02:48;;;;;;;0.60;0.60;;;;;;;-2.18;92.62;98998.94;4840960;29;20054;-88
2022/12/10 08:05:15;;;;;;;0.90;0.90;;;;;;;-2.15;92.51;98993.38;4825284;29;20428;-85
2022/12/10 08:07:43;;;;;;;0.88;0.88;;;;;;;-2.13;92.39;98990.53;4826875;29;20140;-85
2022/12/10 08:10:16;;;;;;;0.70;0.70;;;;;;;-2.09;92.39;99002.44;4838680;29;20053;-85
2022/12/10 08:12:43;;;;;;;0.90;0.90;;;;;;;-2.25;92.11;98972.34;4858867;29;20085;-87
2022/12/10 08:15:15;;;;;;;0.90;0.90;;;;;;;-2.26;92.42;98978.63;4815917;29;20056;-87
2022/12/10 08:17:42;;;;;;;0.80;0.80;;;;;;;-2.20;92.36;99000.97;4792658;29;20058;-87
2022/12/10 08:20:10;;;;;;;0.80;0.80;;;;;;;-2.23;92.18;98982.75;4817771;29;20050;-87
2022/12/10 08:22:51;;;;;;;0.70;0.70;;;;;;;-2.22;92.38;98992.34;4830284;29;20387;-87
2022/12/10 08:25:18;;;;;;;0.80;0.80;;;;;;;-2.21;92.74;98984.25;4819664;29;20050;-85
2022/12/10 08:27:45;;;;;;;0.85;0.85;;;;;;;-2.11;92.63;98993.84;4833821;29;20262;-87
2022/12/10 08:30:13;;;;;;;0.90;0.90;;;;;;;-2.19;92.76;98981.44;4823286;29;20873;-87
2022/12/10 08:32:40;;;;;;;0.80;0.80;;;;;;;-2.13;92.46;98988.72;4829529;29;20054;-87
2022/12/10 08:35:09;;;;;;;0.80;0.80;;;;;;;-2.17;92.68;98986.59;4830982;29;20145;-84
2022/12/10 08:37:36;;;;;;;0.90;0.90;;;;;;;-2.24;92.57;98981.94;4827251;29;20062;-83
2022/12/10 08:40:04;;;;;;;0.80;0.80;;;;;;;-2.12;92.77;98990.38;4830788;29;20058;-86
2022/12/10 08:42:31;;;;;;;0.90;0.90;;;;;;;-2.12;92.92;98979.00;4833879;29;20065;-88
2022/12/10 08:44:58;;;;;;;0.73;0.73;;;;;;;-2.12;92.64;98971.06;4830611;29;20054;-85
2022/12/10 08:47:25;;;;;;;0.70;0.70;;;;;;;-2.10;92.72;98958.47;4833556;29;20082;-90
2022/12/10 08:49:55;;;;;;;0.80;0.80;;;;;;;-2.08;92.64;98961.78;4833249;29;20100;-86
2022/12/10 08:52:29;;;;;;;0.70;0.70;;;;;;;-2.09;92.52;98963.59;4850368;29;20487;-85
2022/12/10 08:54:56;;;;;;;0.80;0.80;;;;;;;-2.03;92.41;98965.56;4849149;29;20057;-86
2022/12/10 08:57:25;;;;;;;0.75;0.75;;;;;;;-2.04;92.86;98971.06;4847838;29;20049;-85
2022/12/10 08:59:53;;;;;;;1.00;1.00;;;;;;;-2.00;92.86;98975.00;4858774;29;20050;-85
2022/12/10 09:02:21;;;;;;;0.90;0.90;;;;;;;-2.01;93.06;98976.81;4854424;29;20113;-86
2022/12/10 09:04:50;;;;;;;0.73;0.73;;;;;;;-2.03;93.14;98965.56;4855530;29;20645;-86
2022/12/10 09:07:18;;;;;;;0.90;0.90;;;;;;;-1.99;92.98;98974.03;4832119;29;20548;-93
2022/12/10 09:09:46;;;;;;;0.75;0.75;;;;;;;-2.02;92.98;98980.47;4853087;29;20054;-87
2022/12/10 09:12:14;;;;;;;0.70;0.70;;;;;;;-1.96;93.05;98979.81;4862642;29;20580;-88
2022/12/10 09:14:41;;;;;;;0.80;0.80;;;;;;;-1.99;92.72;98987.25;4855442;29;20533;-92
2022/12/10 09:17:10;;;;;;;0.82;0.82;;;;;;;-2.03;92.79;98978.81;4845257;29;20135;-89
2022/12/10 09:19:44;;;;;;;1.10;1.10;;;;;;;-2.00;92.82;98991.72;4853550;29;20062;-90
2022/12/10 09:22:14;;;;;;;0.80;0.80;;;;;;;-1.98;93.04;98992.34;4841258;29;20429;-91
2022/12/10 09:24:44;;;;;;;0.70;0.70;;;;;;;-2.08;92.98;98983.75;4857466;29;20049;-91
2022/12/10 09:27:11;;;;;;;1.00;1.00;;;;;;;-2.03;93.23;98985.91;4839172;29;20038;-92
2022/12/10 09:29:39;;;;;;;0.70;0.70;;;;;;;-2.07;93.42;98974.03;4854127;29;20087;-88
2022/12/10 09:32:10;;;;;;;0.90;0.90;;;;;;;-2.14;93.60;98959.81;4839357;29;20053;-90
2022/12/10 09:34:37;;;;;;;0.80;0.80;;;;;;;-2.10;93.74;98961.97;4861749;29;20148;-91
2022/12/10 09:37:05;;;;;;;0.90;0.90;;;;;;;-2.06;93.68;98962.44;4867500;29;20091;-95
2022/12/10 09:39:37;;;;;;;0.70;0.70;;;;;;;-2.07;93.81;98964.28;4810700;29;20151;-91
2022/12/10 09:42:18;;;;;;;0.80;0.80;;;;;;;-2.01;93.81;98958.31;4848852;29;20052;-91
2022/12/10 09:45:27;;;;;;;0.90;0.90;;;;;;;-2.06;94.14;98938.66;4848061;29;20053;-90
2022/12/10 09:48:13;;;;;;;0.80;0.80;;;;;;;-1.94;93.87;98961.13;4794119;29;20079;-92
2022/12/10 09:50:59;;;;;;;0.90;0.90;;;;;;;-2.01;93.98;98947.72;4790865;29;21130;-91
2022/12/10 09:53:28;;;;;;;0.90;0.90;;;;;;;-1.89;94.12;98966.75;4786810;30;20111;-90
2022/12/10 09:55:55;;;;;;;0.80;0.80;;;;;;;-1.99;94.11;98972.22;4794352;29;20608;-92
2022/12/10 09:58:27;;;;;;;0.90;0.90;;;;;;;-1.96;94.09;98965.75;4809661;29;20097;-92
2022/12/10 10:01:32;;;;;;;0.85;0.85;;;;;;;-1.96;94.53;98965.75;4821317;29;20047;-94
2022/12/10 10:04:20;;;;;;;0.90;0.90;;;;;;;-1.93;94.64;98961.97;4810835;29;20047;-93
2022/12/10 10:06:59;;;;;;;1.00;1.00;;;;;;;-2.04;94.34;98952.53;4781649;29;20545;-92
2022/12/10 10:09:29;;;;;;;0.93;0.93;;;;;;;-2.06;94.78;98950.06;4784149;30;20723;-90
2022/12/10 10:12:14;;;;;;;0.90;0.90;;;;;;;-2.02;95.09;98953.22;4771188;29;20059;-90
2022/12/10 10:14:45;;;;;;;0.90;0.90;;;;;;;-2.06;94.75;98943.94;4807914;29;20067;-91
2022/12/10 10:17:31;;;;;;;0.90;0.90;;;;;;;-1.96;95.04;98947.25;4808841;29;20073;-90
2022/12/10 10:20:01;;;;;;;0.85;0.85;;;;;;;-1.91;95.07;98936.16;4808265;29;20153;-90
2022/12/10 10:22:29;;;;;;;1.00;1.00;;;;;;;-2.05;94.90;98916.50;4809496;29;20084;-90
2022/12/10 10:25:02;;;;;;;0.82;0.82;;;;;;;-1.99;95.01;98924.59;4827920;29;20049;-88
2022/12/10 10:27:37;;;;;;;0.80;0.80;;;;;;;-2.00;94.99;98924.75;4863494;29;20074;-90
2022/12/10 10:30:07;;;;;;;0.93;0.93;;;;;;;-1.96;95.25;98936.66;4850915;29;20068;-86
2022/12/10 10:32:36;;;;;;;0.93;0.93;;;;;;;-2.00;95.21;98924.75;4854315;29;20584;-89
2022/12/10 10:35:05;;;;;;;0.73;0.73;;;;;;;-2.06;95.48;98922.78;4834788;29;20141;-86
2022/12/10 10:37:34;;;;;;;0.80;0.80;;;;;;;-2.03;95.67;98928.56;4849134;29;20054;-88
2022/12/10 10:40:04;;;;;;;0.90;0.90;;;;;;;-2.03;95.72;98925.09;4855474;29;20083;-92
2022/12/10 10:42:34;;;;;;;0.80;0.80;;;;;;;-2.03;95.52;98917.97;4827633;29;20064;-90
2022/12/10 10:45:40;;;;;;;0.80;0.80;;;;;;;-2.03;95.80;98927.72;4843558;29;20093;-90
2022/12/10 10:48:12;;;;;;;0.90;0.90;;;;;;;-2.02;96.11;98919.66;4828116;29;20723;-88
2022/12/10 10:50:51;;;;;;;0.80;0.80;;;;;;;-2.02;95.90;98910.88;4836495;29;20115;-88
2022/12/10 10:53:29;;;;;;;0.90;0.90;;;;;;;-1.96;96.35;98912.84;4823363;29;20158;-87
2022/12/10 10:56:06;;;;;;;0.93;0.93;;;;;;;-1.96;96.19;98910.22;4827591;29;20059;-88
2022/12/10 10:58:33;;;;;;;1.00;1.00;;;;;;;-2.00;96.04;98899.16;4809302;29;21037;-87
2022/12/10 11:01:06;;;;;;;0.80;0.80;;;;;;;-2.00;96.24;98895.66;4813874;29;20062;-87
2022/12/10 11:03:35;;;;;;;0.90;0.90;;;;;;;-1.96;96.30;98902.28;4851313;29;20065;-87
2022/12/10 11:06:06;;;;;;;0.80;0.80;;;;;;;-1.98;96.40;98891.03;4843423;29;20144;-86
2022/12/10 11:08:40;;;;;;;0.77;0.77;;;;;;;-1.97;96.49;98898.00;4825014;29;20054;-86
2022/12/10 11:11:34;;;;;;;0.80;0.80;;;;;;;-1.98;96.36;98889.22;4808251;29;20082;-85
2022/12/10 11:14:19;;;;;;;0.88;0.88;;;;;;;-1.99;96.50;98886.75;4830197;29;20056;-84
2022/12/10 11:16:46;;;;;;;;;;;;;;;-2.02;96.43;98884.44;4838049;29;20066;-84
2022/12/10 11:19:22;;;;;;;0.70;0.70;;;;;;;-1.99;96.25;98877.00;4805842;29;20038;-85
2022/12/10 11:21:49;;;;;;;0.82;0.82;;;;;;;-1.97;96.26;98880.31;4821542;29;20085;-84
2022/12/10 11:24:18;;;;;;;0.82;0.82;;;;;;;-2.03;96.21;98875.66;4837824;29;20054;-85
2022/12/10 11:26:55;;;;;;;0.88;0.88;;;;;;;-2.00;96.31;98874.50;4816635;29;20050;-85
2022/12/10 11:29:47;;;;;;;0.80;0.80;;;;;;;-1.94;96.41;98859.81;4837215;29;20057;-86
2022/12/10 11:32:26;;;;;;;0.80;0.80;;;;;;;-2.00;96.55;98863.91;4833107;29;20069;-84
2022/12/10 11:35:11;;;;;;;0.90;0.90;;;;;;;-1.93;96.61;98859.63;4836746;29;20061;-84
2022/12/10 11:37:51;;;;;;;0.90;0.90;;;;;;;-1.92;96.32;98856.00;4834837;29;20054;-87
2022/12/10 11:40:21;;;;;;;0.93;0.93;;;;;;;-1.92;96.16;98856.00;4837555;29;20606;-83
2022/12/10 11:42:58;;;;;;;0.80;0.80;;;;;;;-1.92;96.11;98855.16;4837095;29;20141;-84
2022/12/10 11:46:07;;;;;;;0.80;0.80;;;;;;;-1.93;96.06;98848.22;4821995;29;20050;-86
2022/12/10 11:48:47;;;;;;;0.82;0.82;;;;;;;-1.99;96.09;98844.44;4836647;29;20147;-83
2022/12/10 11:51:24;;;;;;;0.80;0.80;;;;;;;-2.01;95.96;98835.84;4840634;29;20088;-85
2022/12/10 11:54:12;;;;;;;0.60;0.60;;;;;;;-2.03;96.15;98837.81;4855710;29;20410;-85
2022/12/10 11:56:42;;;;;;;0.77;0.77;;;;;;;-2.10;96.24;98835.03;4839962;29;20056;-86
2022/12/10 11:59:21;;;;;;;0.80;0.80;;;;;;;-2.02;96.18;98835.00;4858043;29;20060;-86
2022/12/10 12:02:36;;;;;;;0.90;0.90;;;;;;;-2.00;96.07;98840.13;4841904;29;20053;-87
2022/12/10 12:05:09;;;;;;;0.93;0.93;;;;;;;-2.00;96.20;98840.13;4858691;29;20527;-85